TimeEDT,TemperatureF,Dew PointF,Humidity,Sea Level PressureIn,VisibilityMPH,Wind Direction,Wind SpeedMPH,Gust SpeedMPH,PrecipitationIn,Events,Conditions,WindDirDegrees,DateUTC
12:15 AM,73.4,50.0,44,30.16,10.0,North,4.6,-,N/A,,Clear,10,2013-05-25 04:15:00
12:35 AM,71.6,48.2,43,30.16,10.0,NNE,4.6,-,N/A,,Clear,20,2013-05-25 04:35:00
12:55 AM,69.8,50.0,49,30.17,10.0,North,3.5,-,N/A,,Clear,360,2013-05-25 04:55:00
1:15 AM,69.8,50.0,49,30.17,10.0,North,3.5,-,N/A,,Clear,10,2013-05-25 05:15:00
1:35 AM,69.8,51.8,53,30.16,10.0,North,4.6,-,N/A,,Clear,10,2013-05-25 05:35:00
1:55 AM,66.2,51.8,60,30.16,10.0,Calm,Calm,-,N/A,,Clear,0,2013-05-25 05:55:00
2:15 AM,64.4,53.6,68,30.16,10.0,Calm,Calm,-,N/A,,Clear,0,2013-05-25 06:15:00
2:35 AM,62.6,53.6,72,30.16,10.0,Calm,Calm,-,N/A,,Clear,0,2013-05-25 06:35:00
2:55 AM,60.8,53.6,77,30.16,10.0,Calm,Calm,-,N/A,,Clear,0,2013-05-25 06:55:00
3:15 AM,60.8,53.6,77,30.16,10.0,Calm,Calm,-,N/A,,Clear,0,2013-05-25 07:15:00
3:35 AM,60.8,53.6,77,30.15,10.0,Calm,Calm,-,N/A,,Clear,0,2013-05-25 07:35:00
3:55 AM,60.8,55.4,82,30.15,10.0,Calm,Calm,-,N/A,,Clear,0,2013-05-25 07:55:00
4:15 AM,59.0,55.4,88,30.15,7.0,Calm,Calm,-,N/A,,Clear,0,2013-05-25 08:15:00
4:35 AM,59.0,55.4,88,30.16,10.0,Calm,Calm,-,N/A,,Clear,0,2013-05-25 08:35:00
4:55 AM,59.0,55.4,88,30.16,10.0,Calm,Calm,-,N/A,,Clear,0,2013-05-25 08:55:00
5:15 AM,59.0,55.4,88,30.16,10.0,Calm,Calm,-,N/A,,Clear,0,2013-05-25 09:15:00
5:35 AM,59.0,55.4,88,30.17,10.0,Calm,Calm,-,N/A,,Clear,0,2013-05-25 09:35:00
5:55 AM,59.0,55.4,88,30.18,10.0,Calm,Calm,-,N/A,,Clear,0,2013-05-25 09:55:00
6:15 AM,59.0,57.2,94,30.19,10.0,Calm,Calm,-,N/A,,Clear,0,2013-05-25 10:15:00
6:35 AM,57.2,55.4,94,30.21,10.0,Calm,Calm,-,N/A,,Clear,0,2013-05-25 10:35:00
6:55 AM,59.0,55.4,88,30.21,10.0,Calm,Calm,-,N/A,,Clear,0,2013-05-25 10:55:00
7:15 AM,60.8,59.0,94,30.22,10.0,Calm,Calm,-,N/A,,Clear,0,2013-05-25 11:15:00
7:35 AM,64.4,59.0,83,30.24,10.0,NNW,3.5,-,N/A,,Clear,340,2013-05-25 11:35:00
7:55 AM,66.2,59.0,78,30.24,10.0,North,5.8,-,N/A,,Clear,360,2013-05-25 11:55:00
8:15 AM,68.0,59.0,73,30.25,10.0,North,3.5,-,N/A,,Clear,360,2013-05-25 12:15:00
8:35 AM,69.8,59.0,68,30.26,10.0,North,4.6,-,N/A,,Clear,10,2013-05-25 12:35:00
8:55 AM,71.6,60.8,69,30.27,10.0,NE,4.6,-,N/A,,Clear,50,2013-05-25 12:55:00
9:15 AM,73.4,60.8,65,30.27,10.0,ENE,8.1,-,N/A,,Clear,60,2013-05-25 13:15:00
9:35 AM,78.8,55.4,44,30.28,10.0,ENE,15.0,-,N/A,,Clear,60,2013-05-25 13:35:00
9:55 AM,78.8,55.4,44,30.29,10.0,ENE,15.0,20.7,N/A,,Clear,60,2013-05-25 13:55:00
10:15 AM,78.8,53.6,42,30.29,10.0,ENE,17.3,26.5,N/A,,Clear,70,2013-05-25 14:15:00
10:35 AM,77.0,55.4,47,30.29,10.0,ENE,16.1,20.7,N/A,,Clear,70,2013-05-25 14:35:00
10:55 AM,78.8,57.2,47,30.30,10.0,ENE,15.0,21.9,N/A,,Clear,70,2013-05-25 14:55:00
11:15 AM,78.8,55.4,44,30.30,10.0,ENE,17.3,21.9,N/A,,Clear,70,2013-05-25 15:15:00
11:35 AM,78.8,55.4,44,30.30,10.0,NE,13.8,19.6,N/A,,Clear,50,2013-05-25 15:35:00
11:55 AM,78.8,55.4,44,30.31,10.0,NE,10.4,17.3,N/A,,Clear,50,2013-05-25 15:55:00
12:15 PM,77.0,53.6,44,30.30,10.0,ENE,9.2,-,N/A,,Clear,70,2013-05-25 16:15:00
12:35 PM,78.8,53.6,42,30.30,10.0,East,10.4,-,N/A,,Clear,90,2013-05-25 16:35:00
12:55 PM,78.8,53.6,42,30.30,10.0,North,5.8,-,N/A,,Clear,360,2013-05-25 16:55:00
1:15 PM,78.8,53.6,42,30.29,10.0,NNE,8.1,-,N/A,,Clear,30,2013-05-25 17:15:00
1:35 PM,78.8,53.6,42,30.28,10.0,ENE,8.1,-,N/A,,Clear,60,2013-05-25 17:35:00
1:55 PM,77.0,53.6,44,30.28,10.0,NE,5.8,-,N/A,,Clear,40,2013-05-25 17:55:00
2:15 PM,78.8,53.6,42,30.27,10.0,Calm,Calm,-,N/A,,Clear,0,2013-05-25 18:15:00
2:35 PM,78.8,53.6,42,30.26,10.0,ENE,9.2,-,N/A,,Clear,60,2013-05-25 18:35:00
2:55 PM,78.8,55.4,44,30.25,10.0,NE,8.1,-,N/A,,Clear,40,2013-05-25 18:55:00
3:15 PM,78.8,53.6,42,30.25,10.0,NNE,3.5,-,N/A,,Clear,30,2013-05-25 19:15:00
3:35 PM,78.8,53.6,42,30.24,10.0,East,8.1,-,N/A,,Clear,90,2013-05-25 19:35:00
3:55 PM,78.8,53.6,42,30.24,10.0,ENE,8.1,-,N/A,,Clear,70,2013-05-25 19:55:00
4:15 PM,78.8,53.6,42,30.23,10.0,ENE,9.2,-,N/A,,Clear,70,2013-05-25 20:15:00
4:35 PM,78.8,53.6,42,30.23,10.0,East,9.2,-,N/A,,Clear,90,2013-05-25 20:35:00
4:55 PM,78.8,53.6,42,30.22,10.0,ENE,9.2,-,N/A,,Clear,70,2013-05-25 20:55:00
5:15 PM,78.8,53.6,42,30.21,10.0,ESE,6.9,-,N/A,,Clear,110,2013-05-25 21:15:00
5:35 PM,77.0,51.8,41,30.21,10.0,ESE,8.1,-,N/A,,Clear,110,2013-05-25 21:35:00
5:55 PM,77.0,53.6,44,30.21,10.0,ESE,6.9,-,N/A,,Clear,120,2013-05-25 21:55:00
6:15 PM,77.0,53.6,44,30.21,10.0,ESE,6.9,-,N/A,,Clear,110,2013-05-25 22:15:00
6:35 PM,75.2,53.6,47,30.21,10.0,East,8.1,-,N/A,,Clear,100,2013-05-25 22:35:00
6:55 PM,75.2,53.6,47,30.21,10.0,ESE,5.8,-,N/A,,Clear,120,2013-05-25 22:55:00
7:15 PM,73.4,53.6,50,30.22,10.0,East,5.8,-,N/A,,Clear,100,2013-05-25 23:15:00
7:35 PM,73.4,55.4,53,30.22,10.0,SE,4.6,-,N/A,,Clear,130,2013-05-25 23:35:00
7:55 PM,73.4,55.4,53,30.22,10.0,SE,4.6,-,N/A,,Clear,130,2013-05-25 23:55:00
8:15 PM,71.6,55.4,57,30.23,10.0,ESE,4.6,-,N/A,,Clear,110,2013-05-26 00:15:00
8:35 PM,66.2,59.0,78,30.23,10.0,Calm,Calm,-,N/A,,Clear,0,2013-05-26 00:35:00
8:55 PM,64.4,59.0,83,30.24,10.0,ENE,3.5,-,N/A,,Clear,70,2013-05-26 00:55:00
9:15 PM,62.6,59.0,88,30.23,10.0,Calm,Calm,-,N/A,,Clear,0,2013-05-26 01:15:00
9:35 PM,62.6,59.0,88,30.23,10.0,Calm,Calm,-,N/A,,Clear,0,2013-05-26 01:35:00
9:55 PM,62.6,59.0,88,30.23,10.0,Calm,Calm,-,N/A,,Clear,0,2013-05-26 01:55:00
10:15 PM,62.6,59.0,88,30.23,10.0,Calm,Calm,-,N/A,,Clear,0,2013-05-26 02:15:00
10:35 PM,62.6,59.0,88,30.24,10.0,Calm,Calm,-,N/A,,Clear,0,2013-05-26 02:35:00
10:55 PM,60.8,59.0,94,30.24,10.0,Calm,Calm,-,N/A,,Clear,0,2013-05-26 02:55:00
11:15 PM,60.8,59.0,94,30.24,10.0,Calm,Calm,-,N/A,,Clear,0,2013-05-26 03:15:00
11:35 PM,60.8,59.0,94,30.23,10.0,Calm,Calm,-,N/A,,Clear,0,2013-05-26 03:35:00
11:55 PM,60.8,59.0,94,30.23,10.0,Calm,Calm,-,N/A,,Clear,0,2013-05-26 03:55:00